Time;durP1;ratioP1;P1;durP2;ratioP2;P2;SDS_P1;SDS_P2;PMS_P1;PMS_P2;Temp;Humidity;BMP_temperature;BMP_pressure;BME280_temperature;BME280_humidity;BME280_pressure;Samples;Min_cycle;Max_cycle;Signal;HPM_P1;HPM_P2
2021/12/11 13:52:53;;;;;;;9.53;5.27;;;;;;;8.05;100.00;98253.72;5128599;27;20614;-67
2021/12/11 13:55:21;;;;;;;11.73;5.20;;;;;;;7.91;100.00;98265.75;5128922;27;20637;-68
2021/12/11 13:57:49;;;;;;;7.30;4.90;;;;;;;7.82;100.00;98263.88;5128719;27;20247;-63
2021/12/11 14:00:19;;;;;;;7.03;4.70;;;;;;;7.69;100.00;98265.72;5128520;27;20512;-68
2021/12/11 14:02:46;;;;;;;12.67;4.90;;;;;;;7.72;100.00;98257.84;5128187;27;20229;-63
2021/12/11 14:05:13;;;;;;;10.80;5.57;;;;;;;7.76;100.00;98254.13;5128652;27;20216;-63
2021/12/11 14:07:40;;;;;;;7.87;4.73;;;;;;;7.67;100.00;98252.28;5128203;27;20700;-63
2021/12/11 14:10:19;;;;;;;7.50;4.33;;;;;;;7.68;100.00;98238.66;5128322;27;20220;-68
2021/12/11 14:12:48;;;;;;;9.40;4.73;;;;;;;7.61;100.00;98238.28;5128250;27;20223;-68
2021/12/11 14:15:16;;;;;;;8.93;4.70;;;;;;;7.63;100.00;98241.53;5128291;27;20201;-62
2021/12/11 14:17:43;;;;;;;8.70;4.97;;;;;;;7.66;100.00;98237.94;5127777;27;20225;-62
2021/12/11 14:20:12;;;;;;;10.40;5.13;;;;;;;7.63;100.00;98248.34;5128175;27;20204;-68
2021/12/11 14:22:39;;;;;;;8.13;5.10;;;;;;;7.58;100.00;98240.25;5127722;27;20735;-62
2021/12/11 14:25:08;;;;;;;11.87;5.30;;;;;;;7.57;100.00;98234.34;5128209;27;20208;-68
2021/12/11 14:27:37;;;;;;;9.33;5.13;;;;;;;7.58;100.00;98235.97;5128078;27;20224;-63
2021/12/11 14:30:08;;;;;;;11.83;5.73;;;;;;;7.54;100.00;98238.84;5128170;27;20204;-68
2021/12/11 14:32:39;;;;;;;9.87;5.57;;;;;;;7.55;100.00;98235.38;5127890;27;20220;-63
2021/12/11 14:35:08;;;;;;;9.90;5.50;;;;;;;7.54;100.00;98233.78;5127957;27;20193;-62
2021/12/11 14:37:35;;;;;;;11.07;5.83;;;;;;;7.58;100.00;98227.53;5127874;27;20219;-68
2021/12/11 14:40:03;;;;;;;11.10;5.47;;;;;;;7.56;100.00;98207.28;5128158;27;20211;-68
2021/12/11 14:42:30;;;;;;;11.80;5.47;;;;;;;7.54;100.00;98221.84;5127458;27;20309;-66
2021/12/11 14:45:01;;;;;;;12.93;6.77;;;;;;;7.58;100.00;98220.69;5127588;27;20204;-62
2021/12/11 14:47:28;;;;;;;12.47;6.27;;;;;;;7.62;100.00;98211.94;5127690;27;20213;-68
2021/12/11 14:49:56;;;;;;;11.77;6.00;;;;;;;7.60;100.00;98208.69;5127950;27;20577;-68
2021/12/11 14:52:25;;;;;;;10.70;5.87;;;;;;;7.58;100.00;98207.19;5121876;27;20228;-62
2021/12/11 14:54:54;;;;;;;10.87;5.63;;;;;;;7.64;100.00;98214.34;5114284;28;20240;-68
2021/12/11 14:57:21;;;;;;;11.67;5.80;;;;;;;7.62;100.00;98200.91;5113748;28;20217;-68
2021/12/11 14:59:52;;;;;;;15.00;5.90;;;;;;;7.61;100.00;98194.22;5113680;28;20197;-67
2021/12/11 15:02:26;;;;;;;10.70;5.90;;;;;;;7.56;100.00;98191.22;5113282;28;20272;-62
2021/12/11 15:04:55;;;;;;;11.50;4.80;;;;;;;7.64;100.00;98199.09;5113788;28;20201;-68
2021/12/11 15:07:26;;;;;;;13.97;5.70;;;;;;;7.62;100.00;98211.09;5113489;28;20217;-62
2021/12/11 15:09:53;;;;;;;10.00;5.67;;;;;;;7.54;100.00;98221.06;5113829;28;20224;-67
2021/12/11 15:12:21;;;;;;;10.07;5.43;;;;;;;7.55;100.00;98226.00;5113345;28;20221;-67
2021/12/11 15:14:49;;;;;;;11.13;5.93;;;;;;;7.57;100.00;98220.81;5113637;28;20208;-68
2021/12/11 15:17:22;;;;;;;13.37;5.73;;;;;;;7.55;100.00;98228.56;5113656;28;20675;-63
2021/12/11 15:19:54;;;;;;;13.10;5.30;;;;;;;7.57;100.00;98233.53;5113587;28;20208;-68
2021/12/11 15:22:24;;;;;;;10.90;5.50;;;;;;;7.55;100.00;98223.47;5113072;28;20233;-62
2021/12/11 15:24:53;;;;;;;12.73;5.60;;;;;;;7.53;100.00;98216.88;5113343;28;20193;-62
2021/12/11 15:27:25;;;;;;;11.70;5.67;;;;;;;7.54;100.00;98218.50;5113275;28;20217;-67
2021/12/11 15:29:57;;;;;;;9.93;5.67;;;;;;;7.53;100.00;98211.78;5113446;28;20200;-68
2021/12/11 15:32:25;;;;;;;11.77;5.83;;;;;;;7.57;100.00;98203.03;5112919;28;20223;-62
2021/12/11 15:34:55;;;;;;;11.37;5.33;;;;;;;7.55;100.00;98199.78;5113171;28;20208;-62
2021/12/11 15:37:22;;;;;;;12.33;5.57;;;;;;;7.59;100.00;98203.69;5113091;28;20236;-62
2021/12/11 15:39:52;;;;;;;12.63;5.00;;;;;;;7.59;100.00;98206.25;5113197;28;20197;-68
2021/12/11 15:42:19;;;;;;;10.00;5.60;;;;;;;7.59;100.00;98206.25;5113122;28;20255;-62
2021/12/11 15:44:51;;;;;;;14.60;5.80;;;;;;;7.58;100.00;98197.00;5112927;28;20201;-68
2021/12/11 15:47:22;;;;;;;12.67;5.10;;;;;;;7.53;100.00;98191.44;5112898;28;20217;-69
2021/12/11 15:49:50;;;;;;;10.17;5.10;;;;;;;7.55;100.00;98194.69;5113246;28;20414;-68
2021/12/11 15:52:18;;;;;;;13.27;5.47;;;;;;;7.55;100.00;98195.50;5112589;28;20225;-67
2021/12/11 15:54:46;;;;;;;10.30;5.40;;;;;;;7.52;100.00;98189.81;5112563;28;20249;-67
2021/12/11 15:57:15;;;;;;;11.33;5.83;;;;;;;7.50;100.00;98200.09;5112503;28;20231;-62
2021/12/11 15:59:45;;;;;;;15.10;5.83;;;;;;;7.59;100.00;98208.78;5112406;28;20785;-62
2021/12/11 16:02:13;;;;;;;12.30;5.63;;;;;;;7.61;100.00;98210.28;5112586;28;20256;-62
2021/12/11 16:04:40;;;;;;;15.23;5.53;;;;;;;7.56;100.00;98206.47;5111305;28;20562;-67
2021/12/11 16:07:12;;;;;;;16.53;8.03;;;;;;;7.59;100.00;98207.06;5112547;28;20228;-68
2021/12/11 16:09:42;;;;;;;12.90;6.83;;;;;;;7.54;100.00;98203.25;5112347;28;20229;-68
2021/12/11 16:12:12;;;;;;;22.77;10.43;;;;;;;7.61;100.00;98206.94;5112707;28;20216;-62
2021/12/11 16:14:40;;;;;;;16.60;9.37;;;;;;;7.73;100.00;98208.56;5112628;28;20228;-68
2021/12/11 16:17:09;;;;;;;16.20;7.80;;;;;;;7.84;100.00;98215.41;5112293;28;20225;-67
2021/12/11 16:19:38;;;;;;;15.60;8.30;;;;;;;7.70;100.00;98216.44;5112216;28;20559;-67
2021/12/11 16:22:08;;;;;;;17.73;6.67;;;;;;;7.68;100.00;98213.22;5112010;28;20241;-62
2021/12/11 16:24:39;;;;;;;15.77;7.27;;;;;;;7.73;100.00;98208.56;5111965;28;20232;-68
2021/12/11 16:27:09;;;;;;;16.23;7.23;;;;;;;7.65;100.00;98215.97;5111878;28;20274;-62
2021/12/11 16:29:37;;;;;;;21.10;10.30;;;;;;;7.69;100.00;98222.47;5112309;28;20208;-62
2021/12/11 16:32:05;;;;;;;17.17;8.17;;;;;;;7.70;100.00;98218.97;5111843;28;20225;-62
2021/12/11 16:34:32;;;;;;;13.10;7.57;;;;;;;7.84;100.00;98220.50;5111691;28;20208;-62
2021/12/11 16:36:59;;;;;;;13.77;7.47;;;;;;;7.89;100.00;98224.31;5112221;28;20597;-68
2021/12/11 16:39:27;;;;;;;15.77;9.10;;;;;;;7.81;100.00;98220.72;5111804;28;20248;-68
2021/12/11 16:41:57;;;;;;;14.37;7.67;;;;;;;7.72;100.00;98227.31;5111880;28;20233;-62
2021/12/11 16:44:26;;;;;;;14.93;6.10;;;;;;;7.74;100.00;98227.19;5111936;28;20197;-62
2021/12/11 16:46:56;;;;;;;11.40;5.23;;;;;;;7.67;100.00;98239.56;5111404;28;20213;-62
2021/12/11 16:49:27;;;;;;;13.47;6.00;;;;;;;7.59;100.00;98236.75;5111939;28;20198;-68
2021/12/11 16:51:57;;;;;;;12.87;5.80;;;;;;;7.54;100.00;98233.78;5111747;28;20604;-68
2021/12/11 16:54:29;;;;;;;14.93;6.27;;;;;;;7.39;100.00;98231.44;5111873;28;20567;-62
2021/12/11 16:56:56;;;;;;;12.90;7.43;;;;;;;7.37;100.00;98228.19;5111351;28;20627;-68
2021/12/11 16:59:23;;;;;;;20.53;8.60;;;;;;;7.32;100.00;98225.16;5111513;28;20220;-62
2021/12/11 17:01:52;;;;;;;16.53;8.83;;;;;;;7.31;100.00;98218.44;5111592;28;20241;-62
2021/12/11 17:04:20;;;;;;;19.13;9.43;;;;;;;7.27;100.00;98206.88;5111414;28;20592;-62
2021/12/11 17:06:54;;;;;;;16.20;8.93;;;;;;;7.26;100.00;98205.25;5111067;28;20217;-68
2021/12/11 17:09:23;;;;;;;20.33;9.83;;;;;;;7.00;100.00;98210.47;5111358;28;20189;-68
2021/12/11 17:11:52;;;;;;;20.63;10.67;;;;;;;6.83;100.00;98218.50;5111302;28;20220;-68
2021/12/11 17:14:19;;;;;;;20.73;11.10;;;;;;;6.73;100.00;98197.22;5111190;28;20212;-68
2021/12/11 17:16:46;;;;;;;23.87;11.27;;;;;;;6.75;100.00;98195.38;5110643;28;20221;-62
2021/12/11 17:19:15;;;;;;;24.27;12.47;;;;;;;6.80;100.00;98193.31;5111082;28;20204;-62
2021/12/11 17:21:43;;;;;;;28.77;13.73;;;;;;;6.74;100.00;98186.94;5111113;28;20229;-63
2021/12/11 17:24:12;;;;;;;30.20;15.30;;;;;;;6.77;100.00;98194.34;5110969;28;20233;-68
2021/12/11 17:26:39;;;;;;;23.67;12.97;;;;;;;6.79;100.00;98173.91;5110790;28;20221;-67
2021/12/11 17:29:12;;;;;;;26.47;13.77;;;;;;;6.79;100.00;98176.47;5110815;28;20204;-68
2021/12/11 17:31:40;;;;;;;27.10;12.60;;;;;;;6.86;100.00;98177.63;5111182;28;20221;-68
2021/12/11 17:34:09;;;;;;;24.37;12.87;;;;;;;6.80;100.00;98175.53;5110807;28;20197;-62
2021/12/11 17:36:37;;;;;;;26.10;13.50;;;;;;;6.60;100.00;98171.06;5111089;28;20228;-68
2021/12/11 17:39:06;;;;;;;24.50;13.07;;;;;;;6.69;100.00;98165.31;5110735;28;20204;-62
2021/12/11 17:41:34;;;;;;;26.17;12.87;;;;;;;6.67;100.00;98162.09;5110575;28;20236;-68
2021/12/11 17:44:01;;;;;;;27.00;13.43;;;;;;;6.54;100.00;98157.88;5110784;28;20208;-63
2021/12/11 17:46:32;;;;;;;26.83;12.70;;;;;;;6.54;100.00;98177.38;5110640;28;20225;-61
2021/12/11 17:48:59;;;;;;;28.13;14.43;;;;;;;6.49;100.00;98165.00;5110822;28;20202;-62
2021/12/11 17:51:27;;;;;;;29.83;14.07;;;;;;;6.41;100.00;98152.03;5110595;28;20233;-68
2021/12/11 17:53:56;;;;;;;27.13;12.67;;;;;;;6.44;100.00;98151.03;5110989;28;20201;-68
2021/12/11 17:56:23;;;;;;;37.67;13.83;;;;;;;6.46;100.00;98155.06;5110928;28;20232;-68
2021/12/11 17:58:53;;;;;;;38.13;13.83;;;;;;;6.31;100.00;98156.13;5110713;28;20737;-68
2021/12/11 18:01:25;;;;;;;86.67;15.83;;;;;;;6.38;100.00;98157.34;5110638;28;20720;-67
2021/12/11 18:03:57;;;;;;;62.43;15.33;;;;;;;6.34;100.00;98155.91;5110707;28;20200;-62
2021/12/11 18:06:25;;;;;;;76.67;15.67;;;;;;;6.32;100.00;98161.09;5110855;28;20221;-62
2021/12/11 18:08:53;;;;;;;82.07;15.13;;;;;;;6.35;100.00;98162.63;5110816;28;20201;-68
2021/12/11 18:11:32;;;;;;;33.67;14.77;;;;;;;6.28;100.00;98169.03;5110920;28;20221;-68
2021/12/11 18:14:06;;;;;;;77.00;16.43;;;;;;;6.32;100.00;98167.91;5110445;28;20752;-68
2021/12/11 18:16:38;;;;;;;127.53;16.57;;;;;;;6.26;100.00;98163.28;5110563;28;20216;-62
2021/12/11 18:19:11;;;;;;;60.27;16.10;;;;;;;6.12;100.00;98161.69;5110715;28;20670;-68
2021/12/11 18:21:40;;;;;;;146.97;17.13;;;;;;;6.15;100.00;98165.75;5110528;28;20217;-62
2021/12/11 18:24:08;;;;;;;159.23;17.10;;;;;;;6.05;100.00;98171.44;5110594;28;20197;-62
2021/12/11 18:26:35;;;;;;;61.23;17.40;;;;;;;5.91;100.00;98163.94;5110561;28;20221;-62
2021/12/11 18:29:05;;;;;;;258.70;20.87;;;;;;;5.95;100.00;98172.97;5113631;28;20198;-62
2021/12/11 18:31:32;;;;;;;193.43;20.10;;;;;;;5.92;100.00;98196.00;5114377;28;20220;-62
2021/12/11 18:34:00;;;;;;;210.80;21.67;;;;;;;5.89;100.00;98191.13;5114043;28;20205;-68
2021/12/11 18:36:31;;;;;;;209.67;22.37;;;;;;;5.86;100.00;98186.25;5114342;28;20225;-68
2021/12/11 18:38:58;;;;;;;222.77;21.93;;;;;;;5.86;100.00;98176.09;5114027;28;20201;-62
2021/12/11 18:41:29;;;;;;;378.23;25.13;;;;;;;5.84;100.00;98168.59;5114021;28;20217;-62
2021/12/11 18:43:58;;;;;;;210.53;21.57;;;;;;;5.82;100.00;98179.78;5114149;28;20232;-68
2021/12/11 18:46:30;;;;;;;244.37;21.63;;;;;;;5.87;100.00;98182.78;5113905;28;20220;-62
2021/12/11 18:48:58;;;;;;;275.17;23.47;;;;;;;5.81;100.00;98188.28;5114070;28;20641;-62
2021/12/11 18:51:29;;;;;;;301.50;24.57;;;;;;;5.77;100.00;98176.72;5113893;28;20221;-68
2021/12/11 18:54:07;;;;;;;218.10;23.00;;;;;;;5.61;100.00;98182.00;5114060;28;20658;-68
2021/12/11 18:56:34;;;;;;;223.23;21.03;;;;;;;5.57;100.00;98163.66;5113933;28;20217;-62
2021/12/11 18:59:05;;;;;;;399.53;28.27;;;;;;;5.72;100.00;98168.63;5113723;28;20197;-68
2021/12/11 19:01:37;;;;;;;238.87;21.63;;;;;;;5.66;100.00;98162.22;5114075;28;20229;-62
2021/12/11 19:04:09;;;;;;;335.13;24.53;;;;;;;5.75;100.00;98159.06;5113766;27;20591;-68
2021/12/11 19:06:39;;;;;;;268.80;21.83;;;;;;;5.72;100.00;98153.41;5113685;28;20233;-68
2021/12/11 19:09:09;;;;;;;168.67;19.63;;;;;;;5.71;100.00;98156.84;5113442;28;20201;-62
2021/12/11 19:11:41;;;;;;;196.73;21.30;;;;;;;5.55;100.00;98157.88;5113583;28;20228;-68
2021/12/11 19:14:09;;;;;;;243.00;22.00;;;;;;;5.52;100.00;98153.00;5113339;28;20200;-62
2021/12/11 19:16:36;;;;;;;245.97;21.47;;;;;;;5.54;100.00;98141.03;5113220;28;20232;-68
2021/12/11 19:19:05;;;;;;;368.50;23.53;;;;;;;5.50;100.00;98139.63;5113302;28;20228;-62
2021/12/11 19:21:36;;;;;;;301.27;22.03;;;;;;;5.44;100.00;98137.50;5113103;28;20217;-68
2021/12/11 19:24:08;;;;;;;239.53;20.57;;;;;;;5.45;100.00;98141.66;5113504;28;20213;-68
2021/12/11 19:26:36;;;;;;;236.20;20.77;;;;;;;5.36;100.00;98130.41;5113666;28;20221;-62
2021/12/11 19:29:06;;;;;;;239.83;20.47;;;;;;;5.36;100.00;98134.66;5113171;28;20220;-68
2021/12/11 19:31:40;;;;;;;120.60;18.40;;;;;;;5.37;100.00;98126.13;5113081;28;20210;-62
2021/12/11 19:34:08;;;;;;;241.47;20.43;;;;;;;5.38;100.00;98125.22;5113354;28;20201;-62
2021/12/11 19:36:37;;;;;;;307.20;21.97;;;;;;;5.19;100.00;98126.44;5113272;28;20221;-66
2021/12/11 19:39:11;;;;;;;264.90;19.73;;;;;;;5.30;100.00;98132.53;5113045;28;20216;-67
2021/12/11 19:41:39;;;;;;;248.67;19.63;;;;;;;5.27;100.00;98122.59;5112849;28;20228;-67
2021/12/11 19:44:07;;;;;;;181.97;18.57;;;;;;;5.28;100.00;98119.97;5113083;28;20233;-68
2021/12/11 19:46:35;;;;;;;198.43;18.13;;;;;;;5.35;100.00;98115.28;5112777;28;20694;-68
2021/12/11 19:49:02;;;;;;;123.20;15.83;;;;;;;5.34;100.00;98116.22;5112608;28;20204;-63
2021/12/11 19:51:32;;;;;;;153.43;16.97;;;;;;;5.44;100.00;98109.63;5112793;28;20236;-68
2021/12/11 19:54:01;;;;;;;109.80;16.33;;;;;;;5.42;100.00;98097.03;5112641;28;20661;-68
2021/12/11 19:56:29;;;;;;;165.70;17.33;;;;;;;5.57;100.00;98099.47;5112620;28;20736;-62
2021/12/11 19:58:57;;;;;;;179.40;16.67;;;;;;;5.22;100.00;98088.22;5112784;28;20591;-63
2021/12/11 20:01:28;;;;;;;114.07;16.10;;;;;;;5.21;100.00;98083.28;5112539;28;20232;-68
2021/12/11 20:03:57;;;;;;;122.60;16.03;;;;;;;5.36;100.00;98086.50;5112429;28;20225;-68
2021/12/11 20:06:29;;;;;;;130.57;16.70;;;;;;;5.33;100.00;98079.13;5112540;28;20701;-68
2021/12/11 20:09:00;;;;;;;52.23;14.80;;;;;;;5.27;100.00;98084.59;5112347;28;20201;-62
2021/12/11 20:11:31;;;;;;;88.20;15.70;;;;;;;5.31;100.00;98088.53;5112031;28;20221;-62
2021/12/11 20:13:58;;;;;;;81.10;14.97;;;;;;;5.33;100.00;98074.84;5112536;28;20196;-62
2021/12/11 20:16:29;;;;;;;171.27;22.43;;;;;;;5.36;100.00;98072.09;5112280;28;20558;-68
2021/12/11 20:19:00;;;;;;;157.43;19.47;;;;;;;5.33;100.00;98081.66;5112762;28;20212;-68
2021/12/11 20:21:31;;;;;;;108.27;17.07;;;;;;;5.33;100.00;98061.38;5111867;28;20229;-63
2021/12/11 20:24:00;;;;;;;120.27;16.57;;;;;;;5.36;100.00;98077.19;5112330;28;20248;-62
2021/12/11 20:26:29;;;;;;;117.17;25.00;;;;;;;5.34;100.00;98076.47;5111864;28;20628;-62
2021/12/11 20:29:00;;;;;;;96.90;20.87;;;;;;;5.33;100.00;98059.63;5111923;28;20197;-68
2021/12/11 20:31:33;;;;;;;150.13;19.00;;;;;;;5.43;100.00;98047.16;5112027;28;20229;-62
2021/12/11 20:34:00;;;;;;;78.73;15.63;;;;;;;5.41;100.00;98059.09;5112071;28;20201;-62
2021/12/11 20:36:28;;;;;;;73.80;15.07;;;;;;;5.41;100.00;98059.09;5111866;28;20690;-68
2021/12/11 20:38:59;;;;;;;58.20;14.40;;;;;;;5.38;100.00;98052.53;5111787;28;20212;-62
2021/12/11 20:41:30;;;;;;;65.43;14.03;;;;;;;5.38;100.00;98059.31;5112101;28;20244;-62
2021/12/11 20:44:00;;;;;;;96.90;14.40;;;;;;;5.36;100.00;98063.69;5111680;28;20236;-62
2021/12/11 20:46:27;;;;;;;139.70;16.70;;;;;;;5.30;100.00;98056.50;5111468;28;20224;-62
2021/12/11 20:48:55;;;;;;;122.53;15.20;;;;;;;5.24;100.00;98050.13;5111782;28;20334;-67
2021/12/11 20:51:28;;;;;;;92.37;13.57;;;;;;;5.22;100.00;98054.47;5111174;28;20255;-68
2021/12/11 20:53:57;;;;;;;93.67;14.37;;;;;;;5.25;100.00;98054.28;5111797;28;20198;-62
2021/12/11 20:56:27;;;;;;;122.50;15.00;;;;;;;5.27;100.00;98049.13;5111588;28;20232;-68
2021/12/11 20:58:57;;;;;;;135.47;16.40;;;;;;;5.23;100.00;98045.97;5111435;28;20426;-62
2021/12/11 21:01:28;;;;;;;52.13;13.67;;;;;;;5.28;100.00;98048.19;5111405;28;20224;-62
2021/12/11 21:03:59;;;;;;;156.43;16.43;;;;;;;5.32;100.00;98042.78;5111429;28;20239;-62
2021/12/11 21:06:30;;;;;;;147.63;15.87;;;;;;;5.36;100.00;98030.75;5111382;28;20228;-68
2021/12/11 21:09:01;;;;;;;31.63;13.43;;;;;;;5.31;100.00;98023.44;5111601;28;20209;-68
2021/12/11 21:11:30;;;;;;;122.50;14.33;;;;;;;5.40;100.00;98032.16;5111410;28;20221;-68
2021/12/11 21:14:01;;;;;;;69.93;13.20;;;;;;;5.39;100.00;98030.53;5111203;28;20609;-62
2021/12/11 21:16:32;;;;;;;58.87;12.77;;;;;;;5.26;100.00;98032.28;5111332;28;20248;-68
2021/12/11 21:19:01;;;;;;;116.70;15.13;;;;;;;5.31;100.00;98031.06;5111170;28;20229;-62
2021/12/11 21:21:31;;;;;;;150.67;15.40;;;;;;;5.22;100.00;98032.47;5110976;28;20217;-62
2021/12/11 21:24:01;;;;;;;116.60;14.17;;;;;;;5.17;100.00;98031.97;5111320;28;20220;-68
2021/12/11 21:26:30;;;;;;;138.20;15.77;;;;;;;4.99;100.00;98023.06;5111264;28;20216;-68
2021/12/11 21:29:02;;;;;;;140.73;16.57;;;;;;;5.01;100.00;98020.47;5110935;28;20205;-62
2021/12/11 21:31:35;;;;;;;107.83;15.27;;;;;;;5.00;100.00;98019.63;5110830;28;20221;-68
2021/12/11 21:34:05;;;;;;;168.57;17.10;;;;;;;5.06;100.00;98019.25;5111072;28;20201;-62
2021/12/11 21:36:35;;;;;;;154.93;16.87;;;;;;;4.91;100.00;98000.78;5110921;28;20221;-62
2021/12/11 21:39:07;;;;;;;193.67;18.20;;;;;;;5.05;100.00;98004.94;5110755;28;20198;-62
2021/12/11 21:41:38;;;;;;;140.40;17.00;;;;;;;5.03;100.00;98003.41;5111098;28;20224;-62
2021/12/11 21:44:08;;;;;;;127.83;18.40;;;;;;;4.98;100.00;98001.19;5110790;28;20667;-63
2021/12/11 21:46:44;;;;;;;131.57;20.20;;;;;;;4.93;100.00;97998.16;5110898;28;20225;-67
2021/12/11 21:49:14;;;;;;;110.73;20.67;;;;;;;5.13;100.00;98012.84;5110755;28;20196;-62
2021/12/11 21:51:46;;;;;;;113.00;18.10;;;;;;;4.94;100.00;97987.91;5110890;28;20600;-67
2021/12/11 21:54:17;;;;;;;99.33;19.17;;;;;;;4.99;100.00;97992.69;5110545;28;20189;-68
2021/12/11 21:56:46;;;;;;;66.90;16.97;;;;;;;5.05;100.00;97984.66;5110874;28;20220;-68
2021/12/11 21:59:19;;;;;;;39.47;16.20;;;;;;;5.08;100.00;97971.78;5110661;28;20208;-62
2021/12/11 22:01:50;;;;;;;42.33;18.53;;;;;;;5.17;100.00;97955.16;5110810;28;20741;-62
2021/12/11 22:04:23;;;;;;;43.80;17.67;;;;;;;5.18;100.00;97942.41;5114829;28;20240;-67
2021/12/11 22:06:52;;;;;;;39.07;16.60;;;;;;;5.11;100.00;97922.63;5115265;28;20212;-65
2021/12/11 22:09:22;;;;;;;32.67;14.90;;;;;;;5.25;100.00;97931.84;5114987;28;20311;-68
2021/12/11 22:11:51;;;;;;;36.73;15.40;;;;;;;5.24;100.00;97913.28;5115203;27;20220;-62
2021/12/11 22:14:21;;;;;;;33.77;13.90;;;;;;;5.29;100.00;97910.44;5114609;27;20198;-68
2021/12/11 22:16:52;;;;;;;34.37;14.17;;;;;;;5.37;100.00;97906.44;5114711;28;20209;-67
2021/12/11 22:19:22;;;;;;;34.30;14.63;;;;;;;5.43;100.00;97910.28;5114559;28;20198;-68
2021/12/11 22:21:51;;;;;;;31.93;13.97;;;;;;;5.59;100.00;97900.69;5114465;28;20218;-62
2021/12/11 22:24:24;;;;;;;29.80;13.67;;;;;;;5.70;100.00;97894.81;5114290;28;20229;-68
2021/12/11 22:26:56;;;;;;;30.60;13.43;;;;;;;5.86;100.00;97892.00;5114819;28;20228;-62
2021/12/11 22:29:29;;;;;;;32.37;11.90;;;;;;;5.82;100.00;97890.63;5114416;28;20212;-62
2021/12/11 22:32:00;;;;;;;33.93;13.53;;;;;;;5.93;100.00;97892.38;5114592;28;20217;-62
2021/12/11 22:34:28;;;;;;;32.53;13.83;;;;;;;6.00;100.00;97889.31;5114422;28;20598;-62
2021/12/11 22:36:58;;;;;;;34.93;14.47;;;;;;;6.08;100.00;97894.66;5114401;28;20213;-67
2021/12/11 22:39:31;;;;;;;30.83;13.83;;;;;;;6.08;100.00;97876.88;5114431;28;20238;-68
2021/12/11 22:42:02;;;;;;;35.57;14.97;;;;;;;6.13;100.00;97872.25;5114281;28;20225;-63
2021/12/11 22:44:34;;;;;;;38.40;15.80;;;;;;;6.20;100.00;97869.31;5113967;28;20604;-62
2021/12/11 22:47:09;;;;;;;36.43;14.40;;;;;;;6.17;100.00;97867.78;5113949;28;20217;-67
2021/12/11 22:49:38;;;;;;;35.27;13.57;;;;;;;6.19;100.00;97877.81;5113938;28;20242;-68
2021/12/11 22:52:07;;;;;;;32.87;13.17;;;;;;;6.12;100.00;97873.19;5113548;28;20232;-62
2021/12/11 22:54:38;;;;;;;29.83;14.10;;;;;;;6.17;100.00;97872.03;5113762;28;20197;-67
2021/12/11 22:57:08;;;;;;;37.27;14.03;;;;;;;6.18;100.00;97863.53;5113967;28;20240;-68
2021/12/11 22:59:39;;;;;;;30.07;12.80;;;;;;;6.22;100.00;97863.16;5113694;28;20189;-62
2021/12/11 23:02:09;;;;;;;29.47;12.67;;;;;;;6.25;100.00;97846.91;5114068;28;20217;-62
2021/12/11 23:04:40;;;;;;;29.87;11.57;;;;;;;6.54;100.00;97840.47;5113757;28;20652;-68
2021/12/11 23:07:13;;;;;;;32.60;12.37;;;;;;;6.70;100.00;97824.84;5113446;28;20686;-68
2021/12/11 23:09:44;;;;;;;26.57;11.23;;;;;;;6.89;100.00;97831.84;5113805;28;20201;-62
2021/12/11 23:12:14;;;;;;;31.10;11.90;;;;;;;7.14;100.00;97824.88;5113561;28;20229;-68
2021/12/11 23:14:48;;;;;;;18.13;8.23;;;;;;;7.66;100.00;97836.00;5112860;28;20208;-68
2021/12/11 23:17:22;;;;;;;16.47;7.33;;;;;;;7.85;100.00;97823.44;5113317;28;20869;-63
2021/12/11 23:19:55;;;;;;;19.73;6.23;;;;;;;8.07;100.00;97831.84;5113448;28;20258;-67
2021/12/11 23:22:27;;;;;;;17.37;5.60;;;;;;;8.36;100.00;97832.78;5113401;28;20271;-67
2021/12/11 23:24:58;;;;;;;11.63;5.83;;;;;;;8.48;100.00;97835.28;5113376;28;20319;-68
2021/12/11 23:27:32;;;;;;;11.87;5.67;;;;;;;8.62;100.00;97847.66;5113270;28;20240;-63
2021/12/11 23:30:08;;;;;;;11.60;4.37;;;;;;;8.94;100.00;97849.22;5113209;28;20220;-62
2021/12/11 23:32:40;;;;;;;11.63;5.57;;;;;;;9.17;100.00;97839.63;5112990;27;20213;-68
2021/12/11 23:35:12;;;;;;;18.40;5.57;;;;;;;9.39;100.00;97839.34;5113341;28;20197;-68
2021/12/11 23:37:44;;;;;;;11.17;4.73;;;;;;;9.86;100.00;97825.88;5113136;28;20221;-68
2021/12/11 23:40:16;;;;;;;9.83;3.90;;;;;;;10.15;100.00;97816.41;5113108;28;20208;-62
2021/12/11 23:42:47;;;;;;;12.77;3.73;;;;;;;10.33;100.00;97828.50;5112993;28;20308;-62
2021/12/11 23:45:22;;;;;;;17.10;3.50;;;;;;;10.45;100.00;97840.13;5112801;28;20633;-62
2021/12/11 23:47:52;;;;;;;3.57;2.80;;;;;;;10.50;100.00;97840.53;5113003;28;20657;-62
2021/12/11 23:50:22;;;;;;;9.17;3.33;;;;;;;10.59;100.00;97834.56;5112937;27;20209;-61
2021/12/11 23:52:49;;;;;;;6.67;3.27;;;;;;;10.63;100.00;97835.06;5112587;28;20224;-68
2021/12/11 23:55:22;;;;;;;13.30;3.67;;;;;;;10.65;100.00;97828.88;5112586;28;20221;-69
2021/12/11 23:57:51;;;;;;;9.13;3.53;;;;;;;10.65;100.00;97818.66;5112523;28;20249;-62
